createdAt,value
2022-12-13T00:01:58.294Z,19.27
2022-12-13T00:04:27.166Z,15.95
2022-12-13T00:07:17.021Z,16.70
2022-12-13T00:09:45.548Z,17.10
2022-12-13T00:12:13.545Z,16.85
2022-12-13T00:14:41.891Z,17.40
2022-12-13T00:17:09.882Z,16.23
2022-12-13T00:19:38.407Z,15.70
2022-12-13T00:22:06.508Z,16.27
2022-12-13T00:24:39.094Z,17.35
2022-12-13T00:27:45.992Z,16.77
2022-12-13T00:30:15.883Z,16.27
2022-12-13T00:32:43.976Z,18.08
2022-12-13T00:35:12.396Z,16.08
2022-12-13T00:37:42.188Z,14.90
2022-12-13T00:40:12.638Z,16.67
2022-12-13T00:42:40.730Z,15.77
2022-12-13T00:45:11.574Z,17.50
2022-12-13T00:47:40.277Z,17.95
2022-12-13T00:50:09.114Z,17.38
2022-12-13T00:52:37.607Z,17.67
2022-12-13T00:55:06.438Z,16.55
2022-12-13T00:57:36.217Z,17.90
2022-12-13T01:00:05.612Z,16.75
2022-12-13T01:02:34.066Z,15.95
2022-12-13T01:05:02.070Z,15.13
2022-12-13T01:07:30.150Z,16.92
2022-12-13T01:09:59.299Z,17.48
2022-12-13T01:12:57.911Z,16.35
2022-12-13T01:15:25.950Z,17.45
2022-12-13T01:17:54.073Z,19.33
2022-12-13T01:20:22.613Z,16.35
2022-12-13T01:22:50.745Z,17.70
2022-12-13T01:25:19.445Z,19.33
2022-12-13T01:27:47.871Z,17.20
2022-12-13T01:30:29.327Z,18.67
2022-12-13T01:32:57.671Z,17.33
2022-12-13T01:35:25.775Z,18.67
2022-12-13T01:37:54.357Z,17.20
2022-12-13T01:40:26.691Z,18.58
2022-12-13T01:42:54.898Z,18.35
2022-12-13T01:45:28.105Z,20.00
2022-12-13T01:47:59.850Z,16.77
2022-12-13T01:50:33.952Z,17.83
2022-12-13T01:53:02.665Z,18.92
2022-12-13T01:55:34.701Z,19.73
2022-12-13T01:58:11.430Z,17.65
2022-12-13T02:00:41.952Z,22.58
2022-12-13T02:03:21.114Z,18.70
2022-12-13T02:05:57.390Z,18.50
2022-12-13T02:08:30.050Z,18.80
2022-12-13T02:10:59.524Z,18.95
2022-12-13T02:13:27.920Z,19.65
2022-12-13T02:16:10.234Z,18.25
2022-12-13T02:18:54.258Z,18.85
2022-12-13T02:21:27.634Z,20.80
2022-12-13T02:24:19.792Z,21.13
2022-12-13T02:27:09.319Z,19.00
2022-12-13T02:30:18.011Z,19.80
2022-12-13T02:33:05.118Z,19.13
2022-12-13T02:35:40.706Z,19.98
2022-12-13T02:38:16.763Z,19.73
2022-12-13T02:40:55.633Z,19.88
2022-12-13T02:43:34.127Z,20.00
2022-12-13T02:46:04.685Z,20.10
2022-12-13T02:48:38.394Z,18.40
2022-12-13T02:51:10.325Z,20.52
2022-12-13T02:53:42.040Z,16.30
2022-12-13T02:56:10.189Z,17.15
2022-12-13T02:58:42.503Z,19.17
2022-12-13T03:01:40.170Z,18.33
2022-12-13T03:04:26.315Z,19.20
2022-12-13T03:07:04.532Z,17.80
2022-12-13T03:09:44.159Z,19.33
2022-12-13T03:12:41.512Z,18.05
2022-12-13T03:15:18.516Z,19.02
2022-12-13T03:17:51.486Z,17.75
2022-12-13T03:20:38.873Z,18.65
2022-12-13T03:23:24.132Z,21.45
2022-12-13T03:38:23.436Z,19.35
2022-12-13T03:46:15.064Z,18.40
2022-12-13T03:50:26.267Z,19.20
2022-12-13T03:53:47.702Z,18.23
2022-12-13T03:56:26.165Z,19.10
2022-12-13T03:59:04.190Z,17.70
2022-12-13T04:01:55.612Z,18.98
2022-12-13T04:04:28.631Z,20.38
2022-12-13T04:06:58.523Z,18.80
2022-12-13T04:09:34.158Z,20.38
2022-12-13T04:15:29.630Z,17.85
2022-12-13T04:17:59.152Z,18.52
2022-12-13T04:25:48.428Z,17.13
2022-12-13T04:28:38.098Z,19.85
2022-12-13T04:31:15.076Z,23.55
2022-12-13T04:34:04.360Z,19.50
2022-12-13T04:54:35.776Z,19.10
2022-12-13T05:00:33.493Z,17.40
2022-12-13T05:03:04.348Z,18.13
2022-12-13T05:05:36.009Z,18.42
2022-12-13T05:08:06.039Z,19.10
2022-12-13T05:10:40.287Z,17.63
2022-12-13T05:13:10.039Z,19.55
2022-12-13T05:15:39.867Z,17.98
2022-12-13T05:18:11.195Z,18.23
2022-12-13T05:20:41.938Z,19.52
2022-12-13T05:23:35.702Z,16.48
2022-12-13T05:26:08.355Z,16.70
2022-12-13T05:28:38.047Z,18.25
2022-12-13T05:31:22.432Z,18.48
2022-12-13T05:33:54.513Z,16.25
2022-12-13T05:36:32.497Z,18.85
2022-12-13T05:39:02.336Z,17.95
2022-12-13T05:41:53.148Z,18.27
2022-12-13T05:47:46.438Z,18.77
2022-12-13T05:50:41.779Z,19.27
2022-12-13T05:53:14.591Z,21.42
2022-12-13T05:56:03.945Z,18.55
2022-12-13T05:58:40.285Z,17.83
2022-12-13T06:01:16.149Z,17.65
2022-12-13T06:03:49.346Z,17.90
2022-12-13T06:06:22.352Z,17.08
2022-12-13T06:08:54.912Z,20.02
2022-12-13T06:11:31.754Z,18.10
2022-12-13T06:14:05.887Z,15.98
2022-12-13T06:16:56.280Z,16.10
2022-12-13T06:19:29.137Z,16.25
2022-12-13T06:22:01.643Z,17.25
2022-12-13T06:24:37.544Z,17.88
2022-12-13T06:27:10.716Z,19.52
2022-12-13T06:29:46.532Z,18.23
2022-12-13T06:32:21.247Z,18.17
2022-12-13T06:34:59.196Z,17.88
2022-12-13T06:37:32.347Z,15.23
2022-12-13T06:40:05.558Z,16.17
2022-12-13T06:42:40.861Z,15.63
2022-12-13T06:45:16.205Z,15.52
2022-12-13T06:47:49.109Z,14.90
2022-12-13T06:50:23.096Z,16.92
2022-12-13T06:52:55.219Z,17.08
2022-12-13T06:55:28.618Z,16.67
2022-12-13T06:58:01.999Z,15.85
2022-12-13T07:00:48.307Z,17.15
2022-12-13T07:03:23.702Z,16.25
2022-12-13T07:06:23.253Z,16.45
2022-12-13T07:08:57.775Z,18.25
2022-12-13T07:11:34.442Z,18.10
2022-12-13T07:14:06.641Z,14.93
2022-12-13T07:16:41.038Z,18.13
2022-12-13T07:19:24.068Z,14.68
2022-12-13T07:22:01.436Z,17.25
2022-12-13T07:24:33.221Z,17.90
2022-12-13T07:27:06.066Z,15.57
2022-12-13T07:29:41.077Z,15.95
2022-12-13T07:32:18.403Z,19.10
2022-12-13T07:34:52.721Z,17.30
2022-12-13T07:37:30.047Z,15.93
2022-12-13T07:40:04.610Z,17.38
2022-12-13T07:42:37.475Z,17.60
2022-12-13T07:45:10.820Z,18.25
2022-12-13T07:47:46.196Z,17.58
2022-12-13T07:50:27.429Z,18.38
2022-12-13T07:56:20.629Z,16.75
2022-12-13T07:59:01.372Z,18.30
2022-12-13T08:01:41.066Z,20.00
2022-12-13T08:04:43.273Z,15.55
2022-12-13T08:07:29.634Z,15.63
2022-12-13T08:10:19.082Z,16.80
2022-12-13T08:13:01.319Z,15.73
2022-12-13T08:16:26.486Z,16.95
2022-12-13T08:22:24.180Z,17.85
2022-12-13T08:25:04.698Z,15.88
2022-12-13T08:27:48.034Z,17.95
2022-12-13T08:30:46.189Z,17.88
2022-12-13T08:33:23.660Z,14.88
2022-12-13T09:05:32.439Z,19.20
2022-12-13T09:08:24.066Z,17.63
2022-12-13T09:11:11.232Z,18.40
2022-12-13T09:14:01.948Z,20.60
2022-12-13T09:16:42.680Z,17.88
2022-12-13T09:19:37.051Z,17.23
2022-12-13T09:22:32.860Z,18.40
2022-12-13T09:25:15.723Z,18.80
2022-12-13T09:28:14.027Z,18.25
2022-12-13T09:34:46.636Z,21.42
2022-12-13T09:37:25.440Z,18.77
2022-12-13T09:40:16.470Z,18.77
2022-12-13T09:44:01.881Z,17.55
2022-12-13T09:47:24.730Z,20.35
2022-12-13T09:51:28.768Z,17.80
2022-12-13T09:54:50.766Z,18.73
2022-12-13T09:57:38.825Z,18.05
2022-12-13T10:05:01.174Z,18.20
2022-12-13T10:08:20.768Z,17.10
2022-12-13T10:11:01.962Z,16.88
2022-12-13T10:13:43.818Z,19.60
2022-12-13T10:19:28.432Z,17.98
2022-12-13T10:22:09.624Z,17.77
2022-12-13T10:24:51.987Z,17.65
2022-12-13T10:27:22.407Z,21.45
2022-12-13T10:30:03.258Z,18.20
2022-12-13T10:32:37.774Z,17.48
2022-12-13T10:35:30.461Z,18.67
2022-12-13T10:38:00.441Z,16.88
2022-12-13T10:40:33.872Z,17.10
2022-12-13T10:43:12.481Z,17.17
2022-12-13T10:45:41.602Z,17.30
2022-12-13T10:48:21.142Z,16.17
2022-12-13T10:51:02.426Z,16.58
2022-12-13T10:53:33.654Z,16.83
2022-12-13T10:56:04.035Z,16.38
2022-12-13T10:58:39.103Z,17.55
2022-12-13T11:01:20.671Z,15.85
2022-12-13T11:04:01.853Z,16.45
2022-12-13T11:06:44.357Z,16.17
2022-12-13T11:09:23.190Z,15.85
2022-12-13T11:11:58.891Z,15.82
2022-12-13T11:14:31.739Z,15.10
2022-12-13T11:17:07.115Z,16.20
2022-12-13T11:19:41.694Z,16.73
2022-12-13T11:22:20.198Z,14.77
2022-12-13T11:24:52.482Z,13.98
2022-12-13T11:27:46.637Z,16.05
2022-12-13T11:30:22.502Z,14.18
2022-12-13T11:33:06.723Z,13.07
2022-12-13T11:35:52.517Z,14.43
2022-12-13T11:38:29.836Z,12.43
2022-12-13T11:41:31.160Z,15.25
2022-12-13T11:44:08.549Z,14.48
2022-12-13T11:46:42.700Z,14.43
2022-12-13T11:49:18.007Z,15.68
2022-12-13T11:51:51.736Z,13.80
2022-12-13T11:54:29.198Z,13.82
2022-12-13T11:57:01.119Z,14.73
2022-12-13T11:59:44.798Z,15.07
2022-12-13T12:02:19.944Z,12.85
2022-12-13T12:04:58.139Z,13.13
2022-12-13T12:07:36.977Z,14.02
2022-12-13T12:10:27.794Z,13.00
2022-12-13T12:13:04.516Z,14.07
2022-12-13T12:15:41.733Z,13.60
2022-12-13T12:18:16.712Z,13.20
2022-12-13T12:21:06.097Z,13.15
2022-12-13T12:23:52.513Z,14.18
2022-12-13T12:26:28.397Z,14.60
2022-12-13T12:29:25.651Z,13.35
2022-12-13T12:32:21.899Z,15.57
2022-12-13T12:34:58.189Z,12.80
2022-12-13T12:37:35.585Z,13.88
2022-12-13T12:40:52.088Z,12.32
2022-12-13T12:43:28.928Z,15.15
2022-12-13T12:46:12.022Z,14.25
2022-12-13T12:49:06.087Z,12.38
2022-12-13T12:51:45.421Z,12.20
2022-12-13T12:54:32.579Z,13.15
2022-12-13T12:57:07.630Z,13.43
2022-12-13T12:59:46.568Z,12.90
2022-12-13T13:02:23.231Z,14.07
2022-12-13T13:05:01.230Z,14.23
2022-12-13T13:07:39.741Z,12.30
2022-12-13T13:10:16.400Z,15.90
2022-12-13T13:13:12.196Z,12.77
2022-12-13T13:15:56.392Z,13.85
2022-12-13T13:18:44.924Z,12.80
2022-12-13T13:21:47.406Z,13.30
2022-12-13T13:24:26.499Z,12.15
2022-12-13T13:26:57.148Z,13.63
2022-12-13T13:29:35.472Z,13.13
2022-12-13T13:32:28.480Z,12.98
2022-12-13T13:35:31.913Z,13.50
2022-12-13T13:38:04.704Z,11.63
2022-12-13T13:40:35.594Z,12.95
2022-12-13T13:43:09.956Z,13.23
2022-12-13T13:46:09.376Z,14.00
2022-12-13T13:48:53.506Z,14.30
2022-12-13T13:55:19.035Z,13.43
2022-12-13T13:58:21.799Z,12.68
2022-12-13T14:01:24.528Z,12.90
2022-12-13T14:04:14.162Z,13.80
2022-12-13T14:07:32.807Z,11.55
2022-12-13T14:10:24.377Z,13.48
2022-12-13T14:13:29.274Z,12.55
2022-12-13T14:16:46.252Z,12.80
2022-12-13T14:19:38.918Z,11.57
2022-12-13T14:22:19.765Z,13.05
2022-12-13T14:25:06.376Z,11.48
2022-12-13T14:27:44.287Z,13.02
2022-12-13T14:30:27.053Z,13.10
2022-12-13T14:32:56.201Z,13.07
2022-12-13T14:35:28.279Z,12.10
2022-12-13T14:37:59.096Z,12.95
2022-12-13T14:40:32.223Z,12.15
2022-12-13T14:43:01.514Z,12.85
2022-12-13T14:45:32.061Z,12.73
2022-12-13T14:48:02.568Z,13.70
2022-12-13T14:50:36.209Z,11.45
2022-12-13T14:53:05.446Z,11.45
2022-12-13T14:55:37.428Z,11.90
2022-12-13T14:58:18.003Z,11.18
2022-12-13T15:01:07.168Z,10.95
2022-12-13T15:03:55.160Z,12.25
2022-12-13T15:06:24.675Z,13.60
2022-12-13T15:09:12.788Z,11.93
2022-12-13T15:11:43.283Z,12.25
2022-12-13T15:14:17.147Z,12.27
2022-12-13T15:16:50.562Z,11.80
2022-12-13T15:19:48.697Z,10.88
2022-12-13T15:22:22.331Z,14.95
2022-12-13T15:24:58.963Z,13.93
2022-12-13T15:27:31.908Z,13.40
2022-12-13T15:30:00.137Z,12.40
2022-12-13T15:32:28.252Z,14.32
2022-12-13T15:34:56.348Z,14.27
2022-12-13T15:37:33.078Z,13.82
2022-12-13T15:40:06.821Z,13.90
2022-12-13T15:42:37.665Z,13.40
2022-12-13T15:45:09.121Z,14.40
2022-12-13T15:47:37.358Z,15.20
2022-12-13T15:50:07.138Z,15.85
2022-12-13T15:52:38.802Z,15.45
2022-12-13T15:55:28.880Z,14.13
2022-12-13T15:57:59.302Z,14.80
2022-12-13T16:00:31.958Z,13.23
2022-12-13T16:03:08.473Z,12.48
2022-12-13T16:05:40.156Z,14.20
2022-12-13T16:08:26.216Z,14.98
2022-12-13T16:10:54.949Z,13.88
2022-12-13T16:13:27.287Z,14.55
2022-12-13T16:15:59.967Z,12.95
2022-12-13T16:18:45.970Z,12.10
2022-12-13T16:21:14.693Z,13.65
2022-12-13T16:23:48.393Z,13.20
2022-12-13T16:26:23.802Z,12.75
2022-12-13T16:28:52.158Z,14.77
2022-12-13T16:31:23.364Z,11.68
2022-12-13T16:33:51.608Z,12.68
2022-12-13T16:36:19.951Z,13.68
2022-12-13T16:38:49.393Z,13.50
2022-12-13T16:41:17.811Z,13.13
2022-12-13T16:43:55.960Z,12.27
2022-12-13T16:47:18.096Z,14.10
2022-12-13T16:53:38.389Z,15.02
2022-12-13T16:56:11.325Z,16.60
2022-12-13T16:58:58.576Z,16.90
2022-12-13T17:01:29.282Z,16.05
2022-12-13T17:03:57.652Z,14.13
2022-12-13T17:06:26.151Z,13.93
2022-12-13T17:08:54.190Z,12.52
2022-12-13T17:11:23.880Z,12.63
2022-12-13T17:14:13.181Z,13.50
2022-12-13T17:16:41.393Z,13.85
2022-12-13T17:19:10.907Z,12.27
2022-12-13T17:21:39.038Z,13.30
2022-12-13T17:24:08.030Z,13.40
2022-12-13T17:26:37.548Z,14.55
2022-12-13T17:29:05.735Z,12.88
2022-12-13T17:31:36.016Z,13.02
2022-12-13T17:34:05.230Z,13.02
2022-12-13T17:36:33.567Z,13.02
2022-12-13T17:39:02.054Z,14.20
2022-12-13T17:41:30.227Z,14.60
2022-12-13T17:44:01.533Z,13.07
2022-12-13T17:46:29.712Z,12.63
2022-12-13T17:48:57.804Z,12.82
2022-12-13T17:51:26.007Z,14.65
2022-12-13T17:53:54.141Z,12.48
2022-12-13T17:56:22.817Z,12.77
2022-12-13T17:58:51.110Z,11.25
2022-12-13T18:01:22.174Z,13.00
2022-12-13T18:03:53.899Z,12.60
2022-12-13T18:06:22.365Z,13.55
2022-12-13T18:09:08.650Z,12.70
2022-12-13T18:11:37.167Z,12.77
2022-12-13T18:14:07.420Z,13.40
2022-12-13T18:16:39.130Z,11.43
2022-12-13T18:19:09.343Z,13.27
2022-12-13T18:21:37.695Z,12.60
2022-12-13T18:24:07.151Z,11.60
2022-12-13T18:26:35.398Z,12.52
2022-12-13T18:29:03.842Z,12.10
2022-12-13T18:31:32.120Z,10.75
2022-12-13T18:34:08.418Z,12.20
2022-12-13T18:36:37.213Z,13.27
2022-12-13T18:39:05.680Z,10.70
2022-12-13T18:41:36.073Z,12.25
2022-12-13T18:44:06.537Z,12.25
2022-12-13T18:46:36.595Z,12.32
2022-12-13T18:49:07.090Z,13.77
2022-12-13T18:51:37.360Z,14.05
2022-12-13T18:54:14.245Z,12.52
2022-12-13T18:56:42.552Z,12.35
2022-12-13T18:59:11.865Z,13.18
2022-12-13T19:01:40.029Z,13.70
2022-12-13T19:04:09.554Z,12.85
2022-12-13T19:06:38.519Z,13.02
2022-12-13T19:09:07.219Z,12.90
2022-12-13T19:11:35.600Z,12.90
2022-12-13T19:14:04.204Z,12.35
2022-12-13T19:16:33.576Z,13.05
2022-12-13T19:19:01.823Z,11.68
2022-12-13T19:21:31.385Z,12.35
2022-12-13T19:24:01.448Z,12.25
2022-12-13T19:26:30.142Z,11.10
2022-12-13T19:28:59.517Z,11.77
2022-12-13T19:31:37.150Z,12.77
2022-12-13T19:34:05.189Z,11.63
2022-12-13T19:36:34.658Z,12.80
2022-12-13T19:39:03.021Z,13.48
2022-12-13T19:41:32.309Z,13.10
2022-12-13T19:44:04.507Z,12.20
2022-12-13T19:46:32.738Z,12.40
2022-12-13T19:49:00.984Z,12.82
2022-12-13T19:51:33.138Z,13.77
2022-12-13T19:54:05.558Z,12.02
2022-12-13T19:56:33.891Z,13.50
2022-12-13T19:59:02.368Z,12.80
2022-12-13T20:01:30.718Z,13.27
2022-12-13T20:03:58.954Z,13.02
2022-12-13T20:06:27.144Z,15.38
2022-12-13T20:08:55.856Z,15.00
2022-12-13T20:11:25.537Z,13.15
2022-12-13T20:13:56.200Z,15.45
2022-12-13T20:16:26.398Z,13.00
2022-12-13T20:18:56.810Z,13.98
2022-12-13T20:21:25.209Z,14.18
2022-12-13T20:23:53.896Z,12.93
2022-12-13T20:26:24.164Z,12.45
2022-12-13T20:28:54.586Z,14.20
2022-12-13T20:31:24.639Z,12.90
2022-12-13T20:33:56.782Z,14.65
2022-12-13T20:36:27.500Z,12.65
2022-12-13T20:38:57.413Z,13.30
2022-12-13T20:41:41.116Z,11.35
2022-12-13T20:44:13.419Z,13.23
2022-12-13T20:46:41.897Z,12.82
2022-12-13T20:49:10.478Z,13.27
2022-12-13T20:51:41.139Z,13.93
2022-12-13T20:54:09.713Z,13.45
2022-12-13T20:56:39.664Z,14.63
2022-12-13T20:59:12.603Z,12.70
2022-12-13T21:01:42.373Z,14.18
2022-12-13T21:04:11.620Z,13.60
2022-12-13T21:06:41.904Z,13.25
2022-12-13T21:09:11.886Z,13.65
2022-12-13T21:11:42.278Z,11.95
2022-12-13T21:14:20.876Z,12.95
2022-12-13T21:16:52.324Z,12.60
2022-12-13T21:19:22.581Z,14.35
2022-12-13T21:21:51.286Z,14.15
2022-12-13T21:24:21.835Z,13.48
2022-12-13T21:26:51.180Z,13.40
2022-12-13T21:29:20.946Z,14.30
2022-12-13T21:31:51.034Z,13.85
2022-12-13T21:34:20.440Z,15.20
2022-12-13T21:36:50.865Z,13.25
2022-12-13T21:39:22.609Z,14.82
2022-12-13T21:41:51.275Z,13.75
2022-12-13T21:44:21.027Z,14.02
2022-12-13T21:49:37.804Z,12.40
2022-12-13T21:52:06.338Z,13.95
2022-12-13T21:54:34.687Z,12.93
2022-12-13T21:57:19.970Z,14.07
2022-12-13T21:59:49.512Z,12.50
2022-12-13T22:02:19.893Z,14.20
2022-12-13T22:04:49.886Z,14.05
2022-12-13T22:07:20.156Z,11.75
2022-12-13T22:09:48.998Z,13.30
2022-12-13T22:12:22.371Z,12.95
2022-12-13T22:14:53.288Z,13.15
2022-12-13T22:17:25.905Z,12.70
2022-12-13T22:19:56.842Z,13.40
2022-12-13T22:22:25.751Z,13.88
2022-12-13T22:24:54.204Z,14.00
2022-12-13T22:27:25.541Z,12.52
2022-12-13T22:29:57.844Z,13.60
2022-12-13T22:32:27.783Z,14.43
2022-12-13T22:34:56.295Z,13.15
2022-12-13T22:37:25.472Z,13.27
2022-12-13T22:39:53.773Z,12.52
2022-12-13T22:42:22.249Z,13.95
2022-12-13T22:44:50.926Z,12.75
2022-12-13T22:47:20.540Z,13.43
2022-12-13T22:49:49.143Z,12.20
2022-12-13T22:52:17.687Z,12.98
2022-12-13T22:54:45.733Z,14.35
2022-12-13T22:57:13.949Z,13.80
2022-12-13T22:59:42.042Z,13.48
2022-12-13T23:02:10.499Z,14.23
2022-12-13T23:04:51.435Z,11.82
2022-12-13T23:07:19.831Z,13.63
2022-12-13T23:09:51.228Z,13.63
2022-12-13T23:12:36.815Z,14.00
2022-12-13T23:15:05.298Z,13.68
2022-12-13T23:17:33.322Z,13.63
2022-12-13T23:20:04.597Z,12.88
2022-12-13T23:22:32.767Z,13.60
2022-12-13T23:25:02.739Z,12.35
2022-12-13T23:27:30.705Z,12.63
2022-12-13T23:29:59.064Z,13.25
2022-12-13T23:32:27.162Z,12.95
2022-12-13T23:34:55.690Z,14.20
2022-12-13T23:37:25.077Z,12.55
2022-12-13T23:39:53.126Z,12.38
2022-12-13T23:42:21.483Z,12.73
2022-12-13T23:44:49.524Z,15.40
2022-12-13T23:47:17.761Z,13.20
2022-12-13T23:49:45.798Z,13.27
2022-12-13T23:52:16.665Z,13.73
2022-12-13T23:54:46.281Z,12.95
2022-12-13T23:57:14.434Z,13.80
2022-12-13T23:59:43.214Z,12.85
